<?xml version="1.0" encoding="UTF-8" standalone="no" ?>
<gpx xmlns="http://www.topografix.com/GPX/1/1" xmlns:xsi="http://www.w3.org/2001/XMLSchema-instance" xsi:schemaLocation="http://www.topografix.com/GPX/1/1 http://www.topografix.com/GPX/1/1/gpx.xsd" version="1.1" creator="VisuGPX - https://www.visugpx.com">
  <metadata>
    <name>1. De Guilherand-Granges à Tournon-sur-Rhône</name>
  </metadata>
  <trk>
    <name><![CDATA[1. De Guilherand-Granges à Tournon-sur-Rhône]]></name>
    <extensions>
      <line xmlns="http://www.topografix.com/GPX/gpx_style/0/2">
        <color>0000FF</color>
        <width>4</width>
      </line>
    </extensions>
    <trkseg>
      <trkpt lat="44.92602" lon="4.86568">
        <ele>110.072022</ele>
        <time>2022-03-21T19:44:08.145Z</time>
      </trkpt>
      <trkpt lat="44.92598" lon="4.86564">
        <ele>110.072022</ele>
        <time>2022-03-21T19:44:09.935Z</time>
      </trkpt>
      <trkpt lat="44.92587" lon="4.86553">
        <ele>110.072022</ele>
        <time>2022-03-21T19:44:14.941Z</time>
      </trkpt>
      <trkpt lat="44.92583" lon="4.86549">
        <ele>110.072022</ele>
        <time>2022-03-21T19:44:16.732Z</time>
      </trkpt>
      <trkpt lat="44.92579" lon="4.86563">
        <ele>110.072022</ele>
        <time>2022-03-21T19:44:19.999Z</time>
      </trkpt>
      <trkpt lat="44.92576" lon="4.86589">
        <ele>110.072022</ele>
        <time>2022-03-21T19:44:25.669Z</time>
      </trkpt>
      <trkpt lat="44.92575" lon="4.86596">
        <ele>110.072022</ele>
        <time>2022-03-21T19:44:27.127Z</time>
      </trkpt>
      <trkpt lat="44.92574" lon="4.86616">
        <ele>110.072022</ele>
        <time>2022-03-21T19:44:31.647Z</time>
      </trkpt>
      <trkpt lat="44.92579" lon="4.86671">
        <ele>110.202432</ele>
        <time>2022-03-21T19:44:44.138Z</time>
      </trkpt>
      <trkpt lat="44.92585" lon="4.86696">
        <ele>110.317503</ele>
        <time>2022-03-21T19:44:49.764Z</time>
      </trkpt>
      <trkpt lat="44.9259" lon="4.8671">
        <ele>110.384748</ele>
        <time>2022-03-21T19:44:53.622Z</time>
      </trkpt>
      <trkpt lat="44.92594" lon="4.86721">
        <ele>110.439355</ele>
        <time>2022-03-21T19:44:56.448Z</time>
      </trkpt>
      <trkpt lat="44.92605" lon="4.86743">
        <ele>110.556975</ele>
        <time>2022-03-21T19:45:02.339Z</time>
      </trkpt>
      <trkpt lat="44.92616" lon="4.86761">
        <ele>110.661757</ele>
        <time>2022-03-21T19:45:08.065Z</time>
      </trkpt>
      <trkpt lat="44.92617" lon="4.86763">
        <ele>110.67405</ele>
        <time>2022-03-21T19:45:08.710Z</time>
      </trkpt>
      <trkpt lat="44.92627" lon="4.86778">
        <ele>110.766449</ele>
        <time>2022-03-21T19:45:13.119Z</time>
      </trkpt>
      <trkpt lat="44.92634" lon="4.86787">
        <ele>110.821035</ele>
        <time>2022-03-21T19:45:16.185Z</time>
      </trkpt>
      <trkpt lat="44.92632" lon="4.8679">
        <ele>110.837378</ele>
        <time>2022-03-21T19:45:17.108Z</time>
      </trkpt>
      <trkpt lat="44.92631" lon="4.868">
        <ele>110.883799</ele>
        <time>2022-03-21T19:45:19.440Z</time>
      </trkpt>
      <trkpt lat="44.92632" lon="4.86803">
        <ele>110.897109</ele>
        <time>2022-03-21T19:45:20.157Z</time>
      </trkpt>
      <trkpt lat="44.92634" lon="4.86805">
        <ele>110.913162</ele>
        <time>2022-03-21T19:45:20.916Z</time>
      </trkpt>
      <trkpt lat="44.92642" lon="4.86804">
        <ele>110.959876</ele>
        <time>2022-03-21T19:45:23.080Z</time>
      </trkpt>
      <trkpt lat="44.92643" lon="4.86803">
        <ele>110.970051</ele>
        <time>2022-03-21T19:45:23.568Z</time>
      </trkpt>
      <trkpt lat="44.92657" lon="4.86821">
        <ele>111.084847</ele>
        <time>2022-03-21T19:45:29.439Z</time>
      </trkpt>
      <trkpt lat="44.9267" lon="4.86841">
        <ele>111.179369</ele>
        <time>2022-03-21T19:45:35.325Z</time>
      </trkpt>
      <trkpt lat="44.92672" lon="4.86843">
        <ele>111.17223</ele>
        <time>2022-03-21T19:45:35.838Z</time>
      </trkpt>
      <trkpt lat="44.92669" lon="4.86853">
        <ele>111.139888</ele>
        <time>2022-03-21T19:45:38.387Z</time>
      </trkpt>
      <trkpt lat="44.92668" lon="4.86855">
        <ele>111.131081</ele>
        <time>2022-03-21T19:45:38.982Z</time>
      </trkpt>
      <trkpt lat="44.92659" lon="4.86942">
        <ele>110.86238</ele>
        <time>2022-03-21T19:45:56.139Z</time>
      </trkpt>
      <trkpt lat="44.92659" lon="4.86951">
        <ele>110.836169</ele>
        <time>2022-03-21T19:45:57.889Z</time>
      </trkpt>
      <trkpt lat="44.92638" lon="4.87052">
        <ele>110.512935</ele>
        <time>2022-03-21T19:46:16.990Z</time>
      </trkpt>
      <trkpt lat="44.92635" lon="4.87066">
        <ele>110.468005</ele>
        <time>2022-03-21T19:46:19.404Z</time>
      </trkpt>
      <trkpt lat="44.92609" lon="4.87187">
        <ele>109.536847</ele>
        <time>2022-03-21T19:46:41.960Z</time>
      </trkpt>
      <trkpt lat="44.92606" lon="4.87201">
        <ele>109.415024</ele>
        <time>2022-03-21T19:46:44.485Z</time>
      </trkpt>
      <trkpt lat="44.92605" lon="4.87214">
        <ele>109.307154</ele>
        <time>2022-03-21T19:46:46.733Z</time>
      </trkpt>
      <trkpt lat="44.92592" lon="4.87291">
        <ele>108.672214</ele>
        <time>2022-03-21T19:47:00.195Z</time>
      </trkpt>
      <trkpt lat="44.92588" lon="4.87324">
        <ele>108.400324</ele>
        <time>2022-03-21T19:47:05.949Z</time>
      </trkpt>
      <trkpt lat="44.92583" lon="4.87356">
        <ele>108.249834</ele>
        <time>2022-03-21T19:47:11.941Z</time>
      </trkpt>
      <trkpt lat="44.9258" lon="4.87378">
        <ele>108.161991</ele>
        <time>2022-03-21T19:47:15.961Z</time>
      </trkpt>
      <trkpt lat="44.92556" lon="4.87445">
        <ele>107.873153</ele>
        <time>2022-03-21T19:47:30.190Z</time>
      </trkpt>
      <trkpt lat="44.92553" lon="4.87451">
        <ele>107.846757</ele>
        <time>2022-03-21T19:47:31.276Z</time>
      </trkpt>
      <trkpt lat="44.9255" lon="4.87461">
        <ele>107.806295</ele>
        <time>2022-03-21T19:47:36.446Z</time>
      </trkpt>
      <trkpt lat="44.92568" lon="4.87477">
        <ele>107.690675</ele>
        <time>2022-03-21T19:47:46.434Z</time>
      </trkpt>
      <trkpt lat="44.92604" lon="4.87508">
        <ele>107.463227</ele>
        <time>2022-03-21T19:48:04.332Z</time>
      </trkpt>
      <trkpt lat="44.9265" lon="4.87553">
        <ele>107.405664</ele>
        <time>2022-03-21T19:48:28.508Z</time>
      </trkpt>
      <trkpt lat="44.92655" lon="4.87557">
        <ele>107.409722</ele>
        <time>2022-03-21T19:48:31.354Z</time>
      </trkpt>
      <trkpt lat="44.92678" lon="4.87585">
        <ele>107.431124</ele>
        <time>2022-03-21T19:48:44.775Z</time>
      </trkpt>
      <trkpt lat="44.92723" lon="4.87629">
        <ele>107.469526</ele>
        <time>2022-03-21T19:49:10.686Z</time>
      </trkpt>
      <trkpt lat="44.92764" lon="4.87668">
        <ele>107.503517</ele>
        <time>2022-03-21T19:49:33.299Z</time>
      </trkpt>
      <trkpt lat="44.93072" lon="4.87957">
        <ele>107.452721</ele>
        <time>2022-03-21T19:52:17.397Z</time>
      </trkpt>
      <trkpt lat="44.93079" lon="4.87984">
        <ele>107.440039</ele>
        <time>2022-03-21T19:52:26.468Z</time>
      </trkpt>
      <trkpt lat="44.93102" lon="4.88021">
        <ele>107.418683</ele>
        <time>2022-03-21T19:52:41.675Z</time>
      </trkpt>
      <trkpt lat="44.9311" lon="4.88034">
        <ele>107.411324</ele>
        <time>2022-03-21T19:52:46.913Z</time>
      </trkpt>
      <trkpt lat="44.9313" lon="4.88058">
        <ele>107.395405</ele>
        <time>2022-03-21T19:52:53.691Z</time>
      </trkpt>
      <trkpt lat="44.93157" lon="4.88092">
        <ele>107.373218</ele>
        <time>2022-03-21T19:53:03.082Z</time>
      </trkpt>
      <trkpt lat="44.93196" lon="4.88156">
        <ele>107.417854</ele>
        <time>2022-03-21T19:53:19.603Z</time>
      </trkpt>
      <trkpt lat="44.93287" lon="4.88235">
        <ele>107.777632</ele>
        <time>2022-03-21T19:53:52.389Z</time>
      </trkpt>
      <trkpt lat="44.9332" lon="4.88263">
        <ele>107.908431</ele>
        <time>2022-03-21T19:54:03.498Z</time>
      </trkpt>
      <trkpt lat="44.93379" lon="4.88311">
        <ele>107.937295</ele>
        <time>2022-03-21T19:54:22.268Z</time>
      </trkpt>
      <trkpt lat="44.93412" lon="4.88342">
        <ele>107.92295</ele>
        <time>2022-03-21T19:54:33.147Z</time>
      </trkpt>
      <trkpt lat="44.93431" lon="4.8836">
        <ele>107.914608</ele>
        <time>2022-03-21T19:54:39.224Z</time>
      </trkpt>
      <trkpt lat="44.93483" lon="4.88394">
        <ele>107.893835</ele>
        <time>2022-03-21T19:54:54.056Z</time>
      </trkpt>
      <trkpt lat="44.93541" lon="4.88413">
        <ele>107.959132</ele>
        <time>2022-03-21T19:55:09.432Z</time>
      </trkpt>
      <trkpt lat="44.93557" lon="4.88419">
        <ele>107.97966</ele>
        <time>2022-03-21T19:55:13.623Z</time>
      </trkpt>
      <trkpt lat="44.93633" lon="4.88447">
        <ele>108.078606</ele>
        <time>2022-03-21T19:55:36.480Z</time>
      </trkpt>
      <trkpt lat="44.93766" lon="4.88449">
        <ele>108.488089</ele>
        <time>2022-03-21T19:56:16.212Z</time>
      </trkpt>
      <trkpt lat="44.93803" lon="4.88456">
        <ele>108.623326</ele>
        <time>2022-03-21T19:56:27.214Z</time>
      </trkpt>
      <trkpt lat="44.93817" lon="4.88456">
        <ele>108.673548</ele>
        <time>2022-03-21T19:56:30.975Z</time>
      </trkpt>
      <trkpt lat="44.93839" lon="4.88441">
        <ele>108.762208</ele>
        <time>2022-03-21T19:56:38.383Z</time>
      </trkpt>
      <trkpt lat="44.93856" lon="4.88414">
        <ele>108.860156</ele>
        <time>2022-03-21T19:56:45.709Z</time>
      </trkpt>
      <trkpt lat="44.93904" lon="4.88398">
        <ele>109.048504</ele>
        <time>2022-03-21T19:57:01.541Z</time>
      </trkpt>
      <trkpt lat="44.93937" lon="4.88387">
        <ele>109.177387</ele>
        <time>2022-03-21T19:57:12.190Z</time>
      </trkpt>
      <trkpt lat="44.94016" lon="4.88347">
        <ele>109.527689</ele>
        <time>2022-03-21T19:57:39.197Z</time>
      </trkpt>
      <trkpt lat="44.9412" lon="4.88282">
        <ele>110.34203</ele>
        <time>2022-03-21T19:58:20.480Z</time>
      </trkpt>
      <trkpt lat="44.9413" lon="4.8827">
        <ele>110.437085</ele>
        <time>2022-03-21T19:58:25.136Z</time>
      </trkpt>
      <trkpt lat="44.94196" lon="4.88195">
        <ele>110.949288</ele>
        <time>2022-03-21T19:58:54.510Z</time>
      </trkpt>
      <trkpt lat="44.94231" lon="4.88156">
        <ele>111.1649</ele>
        <time>2022-03-21T19:59:09.750Z</time>
      </trkpt>
      <trkpt lat="44.94287" lon="4.88105">
        <ele>111.489859</ele>
        <time>2022-03-21T19:59:32.048Z</time>
      </trkpt>
      <trkpt lat="44.94292" lon="4.88098">
        <ele>111.525559</ele>
        <time>2022-03-21T19:59:34.426Z</time>
      </trkpt>
      <trkpt lat="44.94321" lon="4.88056">
        <ele>111.55549</ele>
        <time>2022-03-21T19:59:46.994Z</time>
      </trkpt>
      <trkpt lat="44.94395" lon="4.8796">
        <ele>111.24711</ele>
        <time>2022-03-21T20:00:16.801Z</time>
      </trkpt>
      <trkpt lat="44.94412" lon="4.8793">
        <ele>111.164281</ele>
        <time>2022-03-21T20:00:24.349Z</time>
      </trkpt>
      <trkpt lat="44.94415" lon="4.87901">
        <ele>111.100534</ele>
        <time>2022-03-21T20:00:29.898Z</time>
      </trkpt>
      <trkpt lat="44.94425" lon="4.8786">
        <ele>111.000072</ele>
        <time>2022-03-21T20:00:37.970Z</time>
      </trkpt>
      <trkpt lat="44.94429" lon="4.87819">
        <ele>110.901396</ele>
        <time>2022-03-21T20:00:45.581Z</time>
      </trkpt>
      <trkpt lat="44.94429" lon="4.87814">
        <ele>110.889289</ele>
        <time>2022-03-21T20:00:46.443Z</time>
      </trkpt>
      <trkpt lat="44.94435" lon="4.87801">
        <ele>110.853162</ele>
        <time>2022-03-21T20:00:50.949Z</time>
      </trkpt>
      <trkpt lat="44.9445" lon="4.87793">
        <ele>110.798299</ele>
        <time>2022-03-21T20:00:57.919Z</time>
      </trkpt>
      <trkpt lat="44.94482" lon="4.87776">
        <ele>110.681888</ele>
        <time>2022-03-21T20:01:13.098Z</time>
      </trkpt>
      <trkpt lat="44.94494" lon="4.87781">
        <ele>110.641498</ele>
        <time>2022-03-21T20:01:18.289Z</time>
      </trkpt>
      <trkpt lat="44.94499" lon="4.87786">
        <ele>110.620134</ele>
        <time>2022-03-21T20:01:21.391Z</time>
      </trkpt>
      <trkpt lat="44.94506" lon="4.87798">
        <ele>110.584466</ele>
        <time>2022-03-21T20:01:26.751Z</time>
      </trkpt>
      <trkpt lat="44.94507" lon="4.87811">
        <ele>110.552221</ele>
        <time>2022-03-21T20:01:31.122Z</time>
      </trkpt>
      <trkpt lat="44.94511" lon="4.87833">
        <ele>110.49791</ele>
        <time>2022-03-21T20:01:38.145Z</time>
      </trkpt>
      <trkpt lat="44.9452" lon="4.87831">
        <ele>110.468472</ele>
        <time>2022-03-21T20:01:42.544Z</time>
      </trkpt>
      <trkpt lat="44.94539" lon="4.87827">
        <ele>110.567159</ele>
        <time>2022-03-21T20:01:51.089Z</time>
      </trkpt>
      <trkpt lat="44.94581" lon="4.87801">
        <ele>110.823271</ele>
        <time>2022-03-21T20:02:13.047Z</time>
      </trkpt>
      <trkpt lat="44.94614" lon="4.87772">
        <ele>111.046336</ele>
        <time>2022-03-21T20:02:32.548Z</time>
      </trkpt>
      <trkpt lat="44.94635" lon="4.87754">
        <ele>111.182669</ele>
        <time>2022-03-21T20:02:44.395Z</time>
      </trkpt>
      <trkpt lat="44.94647" lon="4.87748">
        <ele>111.252592</ele>
        <time>2022-03-21T20:02:51.414Z</time>
      </trkpt>
      <trkpt lat="44.94667" lon="4.87739">
        <ele>111.372483</ele>
        <time>2022-03-21T20:03:01.961Z</time>
      </trkpt>
      <trkpt lat="44.94676" lon="4.87735">
        <ele>111.426327</ele>
        <time>2022-03-21T20:03:07.637Z</time>
      </trkpt>
      <trkpt lat="44.94928" lon="4.87524">
        <ele>111.503475</ele>
        <time>2022-03-21T20:05:18.784Z</time>
      </trkpt>
      <trkpt lat="44.94973" lon="4.8749">
        <ele>111.376945</ele>
        <time>2022-03-21T20:05:40.030Z</time>
      </trkpt>
      <trkpt lat="44.94995" lon="4.87473">
        <ele>111.313791</ele>
        <time>2022-03-21T20:05:50.466Z</time>
      </trkpt>
      <trkpt lat="44.95038" lon="4.87433">
        <ele>111.285585</ele>
        <time>2022-03-21T20:06:12.805Z</time>
      </trkpt>
      <trkpt lat="44.95056" lon="4.87415">
        <ele>111.273669</ele>
        <time>2022-03-21T20:06:22.137Z</time>
      </trkpt>
      <trkpt lat="44.95064" lon="4.87408">
        <ele>111.26852</ele>
        <time>2022-03-21T20:06:26.575Z</time>
      </trkpt>
      <trkpt lat="44.9511" lon="4.87363">
        <ele>111.238033</ele>
        <time>2022-03-21T20:06:51.272Z</time>
      </trkpt>
      <trkpt lat="44.9514" lon="4.87327">
        <ele>111.216517</ele>
        <time>2022-03-21T20:07:09.881Z</time>
      </trkpt>
      <trkpt lat="44.952" lon="4.8726">
        <ele>111.73122</ele>
        <time>2022-03-21T20:07:48.093Z</time>
      </trkpt>
      <trkpt lat="44.95276" lon="4.87174">
        <ele>112.397269</ele>
        <time>2022-03-21T20:08:36.680Z</time>
      </trkpt>
      <trkpt lat="44.95306" lon="4.87144">
        <ele>112.569134</ele>
        <time>2022-03-21T20:08:54.713Z</time>
      </trkpt>
      <trkpt lat="44.95337" lon="4.87113">
        <ele>112.726324</ele>
        <time>2022-03-21T20:09:13.058Z</time>
      </trkpt>
      <trkpt lat="44.95352" lon="4.87086">
        <ele>112.829093</ele>
        <time>2022-03-21T20:09:24.891Z</time>
      </trkpt>
      <trkpt lat="44.95401" lon="4.87034">
        <ele>113.081652</ele>
        <time>2022-03-21T20:09:53.845Z</time>
      </trkpt>
      <trkpt lat="44.95433" lon="4.86971">
        <ele>113.050463</ele>
        <time>2022-03-21T20:10:18.792Z</time>
      </trkpt>
      <trkpt lat="44.95483" lon="4.86917">
        <ele>112.730355</ele>
        <time>2022-03-21T20:10:45.263Z</time>
      </trkpt>
      <trkpt lat="44.95496" lon="4.8691">
        <ele>112.655673</ele>
        <time>2022-03-21T20:10:51.616Z</time>
      </trkpt>
      <trkpt lat="44.95507" lon="4.86924">
        <ele>112.580283</ele>
        <time>2022-03-21T20:10:57.319Z</time>
      </trkpt>
      <trkpt lat="44.9554" lon="4.86999">
        <ele>112.259861</ele>
        <time>2022-03-21T20:11:23.202Z</time>
      </trkpt>
      <trkpt lat="44.95545" lon="4.87029">
        <ele>112.143259</ele>
        <time>2022-03-21T20:11:32.768Z</time>
      </trkpt>
      <trkpt lat="44.95543" lon="4.87055">
        <ele>112.049238</ele>
        <time>2022-03-21T20:11:40.008Z</time>
      </trkpt>
      <trkpt lat="44.95546" lon="4.87092">
        <ele>111.910773</ele>
        <time>2022-03-21T20:11:51.431Z</time>
      </trkpt>
      <trkpt lat="44.95557" lon="4.87149">
        <ele>111.693334</ele>
        <time>2022-03-21T20:12:08.520Z</time>
      </trkpt>
      <trkpt lat="44.95558" lon="4.87157">
        <ele>111.663972</ele>
        <time>2022-03-21T20:12:11.503Z</time>
      </trkpt>
      <trkpt lat="44.95579" lon="4.87272">
        <ele>111.350478</ele>
        <time>2022-03-21T20:12:47.871Z</time>
      </trkpt>
      <trkpt lat="44.95581" lon="4.87307">
        <ele>111.371289</ele>
        <time>2022-03-21T20:13:00.348Z</time>
      </trkpt>
      <trkpt lat="44.95586" lon="4.87327">
        <ele>111.383487</ele>
        <time>2022-03-21T20:13:06.759Z</time>
      </trkpt>
      <trkpt lat="44.956" lon="4.87322">
        <ele>111.395143</ele>
        <time>2022-03-21T20:13:13.538Z</time>
      </trkpt>
      <trkpt lat="44.95653" lon="4.87223">
        <ele>111.467774</ele>
        <time>2022-03-21T20:13:54.358Z</time>
      </trkpt>
      <trkpt lat="44.95708" lon="4.87147">
        <ele>111.327002</ele>
        <time>2022-03-21T20:14:27.553Z</time>
      </trkpt>
      <trkpt lat="44.95746" lon="4.87074">
        <ele>111.160339</ele>
        <time>2022-03-21T20:14:55.102Z</time>
      </trkpt>
      <trkpt lat="44.95761" lon="4.87027">
        <ele>111.065088</ele>
        <time>2022-03-21T20:15:10.868Z</time>
      </trkpt>
      <trkpt lat="44.95768" lon="4.87005">
        <ele>111.019489</ele>
        <time>2022-03-21T20:15:18.487Z</time>
      </trkpt>
      <trkpt lat="44.95792" lon="4.86963">
        <ele>111.031167</ele>
        <time>2022-03-21T20:15:34.764Z</time>
      </trkpt>
      <trkpt lat="44.95824" lon="4.86885">
        <ele>111.062829</ele>
        <time>2022-03-21T20:16:03.035Z</time>
      </trkpt>
      <trkpt lat="44.95868" lon="4.86758">
        <ele>111.259216</ele>
        <time>2022-03-21T20:16:49.533Z</time>
      </trkpt>
      <trkpt lat="44.95896" lon="4.86738">
        <ele>111.508501</ele>
        <time>2022-03-21T20:17:04.394Z</time>
      </trkpt>
      <trkpt lat="44.95963" lon="4.86552">
        <ele>112.74566</ele>
        <time>2022-03-21T20:18:19.899Z</time>
      </trkpt>
      <trkpt lat="44.95988" lon="4.86482">
        <ele>113.357875</ele>
        <time>2022-03-21T20:18:49.616Z</time>
      </trkpt>
      <trkpt lat="44.96033" lon="4.86382">
        <ele>114.269999</ele>
        <time>2022-03-21T20:19:33.583Z</time>
      </trkpt>
      <trkpt lat="44.9608" lon="4.86368">
        <ele>114.683116</ele>
        <time>2022-03-21T20:19:58.961Z</time>
      </trkpt>
      <trkpt lat="44.96162" lon="4.86265">
        <ele>115.398359</ele>
        <time>2022-03-21T20:20:52.565Z</time>
      </trkpt>
      <trkpt lat="44.9632" lon="4.8609">
        <ele>116.056026</ele>
        <time>2022-03-21T20:22:26.020Z</time>
      </trkpt>
      <trkpt lat="44.96462" lon="4.85946">
        <ele>116.187696</ele>
        <time>2022-03-21T20:23:44.941Z</time>
      </trkpt>
      <trkpt lat="44.96555" lon="4.85807">
        <ele>115.571301</ele>
        <time>2022-03-21T20:24:43.704Z</time>
      </trkpt>
      <trkpt lat="44.96618" lon="4.8573">
        <ele>115.105024</ele>
        <time>2022-03-21T20:25:17.396Z</time>
      </trkpt>
      <trkpt lat="44.96631" lon="4.85715">
        <ele>115.04622</ele>
        <time>2022-03-21T20:25:24.298Z</time>
      </trkpt>
      <trkpt lat="44.96647" lon="4.85705">
        <ele>114.98072</ele>
        <time>2022-03-21T20:25:31.377Z</time>
      </trkpt>
      <trkpt lat="44.96683" lon="4.85686">
        <ele>114.84013</ele>
        <time>2022-03-21T20:25:47.560Z</time>
      </trkpt>
      <trkpt lat="44.96712" lon="4.85662">
        <ele>114.71643</ele>
        <time>2022-03-21T20:26:01.904Z</time>
      </trkpt>
      <trkpt lat="44.9692" lon="4.85509">
        <ele>115.04396</ele>
        <time>2022-03-21T20:27:52.810Z</time>
      </trkpt>
      <trkpt lat="44.96937" lon="4.85501">
        <ele>115.045331</ele>
        <time>2022-03-21T20:27:57.948Z</time>
      </trkpt>
      <trkpt lat="44.97108" lon="4.85426">
        <ele>114.526119</ele>
        <time>2022-03-21T20:28:43.902Z</time>
      </trkpt>
      <trkpt lat="44.97273" lon="4.85336">
        <ele>113.040728</ele>
        <time>2022-03-21T20:29:25.961Z</time>
      </trkpt>
      <trkpt lat="44.97343" lon="4.85314">
        <ele>112.587298</ele>
        <time>2022-03-21T20:29:43.281Z</time>
      </trkpt>
      <trkpt lat="44.97345" lon="4.85308">
        <ele>112.557416</ele>
        <time>2022-03-21T20:29:44.344Z</time>
      </trkpt>
      <trkpt lat="44.97352" lon="4.85315">
        <ele>112.503373</ele>
        <time>2022-03-21T20:29:47.203Z</time>
      </trkpt>
      <trkpt lat="44.97355" lon="4.8532">
        <ele>112.476436</ele>
        <time>2022-03-21T20:29:48.650Z</time>
      </trkpt>
      <trkpt lat="44.97355" lon="4.85325">
        <ele>112.45134</ele>
        <time>2022-03-21T20:29:49.945Z</time>
      </trkpt>
      <trkpt lat="44.97358" lon="4.85327">
        <ele>112.431916</ele>
        <time>2022-03-21T20:29:50.729Z</time>
      </trkpt>
      <trkpt lat="44.97363" lon="4.85333">
        <ele>112.387855</ele>
        <time>2022-03-21T20:29:52.591Z</time>
      </trkpt>
      <trkpt lat="44.97366" lon="4.85337">
        <ele>112.363896</ele>
        <time>2022-03-21T20:29:53.770Z</time>
      </trkpt>
      <trkpt lat="44.97377" lon="4.8533">
        <ele>112.288065</ele>
        <time>2022-03-21T20:29:56.839Z</time>
      </trkpt>
      <trkpt lat="44.97387" lon="4.85312">
        <ele>112.188199</ele>
        <time>2022-03-21T20:30:01.068Z</time>
      </trkpt>
      <trkpt lat="44.97459" lon="4.85256">
        <ele>111.936092</ele>
        <time>2022-03-21T20:30:23.621Z</time>
      </trkpt>
      <trkpt lat="44.97705" lon="4.85175">
        <ele>111.876802</ele>
        <time>2022-03-21T20:31:36.524Z</time>
      </trkpt>
      <trkpt lat="44.97844" lon="4.85141">
        <ele>111.748754</ele>
        <time>2022-03-21T20:32:15.255Z</time>
      </trkpt>
      <trkpt lat="44.97911" lon="4.85113">
        <ele>111.64846</ele>
        <time>2022-03-21T20:32:34.599Z</time>
      </trkpt>
      <trkpt lat="44.97933" lon="4.85117">
        <ele>111.617724</ele>
        <time>2022-03-21T20:32:40.609Z</time>
      </trkpt>
      <trkpt lat="44.97944" lon="4.85113">
        <ele>111.605086</ele>
        <time>2022-03-21T20:32:43.815Z</time>
      </trkpt>
      <trkpt lat="44.97974" lon="4.85101">
        <ele>111.68913</ele>
        <time>2022-03-21T20:32:52.968Z</time>
      </trkpt>
      <trkpt lat="44.98" lon="4.85092">
        <ele>111.76019</ele>
        <time>2022-03-21T20:33:00.510Z</time>
      </trkpt>
      <trkpt lat="44.98162" lon="4.85014">
        <ele>112.156209</ele>
        <time>2022-03-21T20:33:50.863Z</time>
      </trkpt>
      <trkpt lat="44.9834" lon="4.84951">
        <ele>112.204112</ele>
        <time>2022-03-21T20:34:41.341Z</time>
      </trkpt>
      <trkpt lat="44.98371" lon="4.84941">
        <ele>112.115341</ele>
        <time>2022-03-21T20:34:49.421Z</time>
      </trkpt>
      <trkpt lat="44.98397" lon="4.8507">
        <ele>111.847782</ele>
        <time>2022-03-21T20:35:13.192Z</time>
      </trkpt>
      <trkpt lat="44.98404" lon="4.85078">
        <ele>111.79694</ele>
        <time>2022-03-21T20:35:15.538Z</time>
      </trkpt>
      <trkpt lat="44.98602" lon="4.85078">
        <ele>110.790666</ele>
        <time>2022-03-21T20:36:04.795Z</time>
      </trkpt>
      <trkpt lat="44.98709" lon="4.85059">
        <ele>110.426697</ele>
        <time>2022-03-21T20:36:32.235Z</time>
      </trkpt>
      <trkpt lat="44.98727" lon="4.85051">
        <ele>110.362916</ele>
        <time>2022-03-21T20:36:37.091Z</time>
      </trkpt>
      <trkpt lat="44.98766" lon="4.85018">
        <ele>110.259066</ele>
        <time>2022-03-21T20:36:48.942Z</time>
      </trkpt>
      <trkpt lat="44.98842" lon="4.85014">
        <ele>110.188404</ele>
        <time>2022-03-21T20:37:08.752Z</time>
      </trkpt>
      <trkpt lat="44.98938" lon="4.84978">
        <ele>110.110879</ele>
        <time>2022-03-21T20:37:35.483Z</time>
      </trkpt>
      <trkpt lat="44.99091" lon="4.84955">
        <ele>110.118561</ele>
        <time>2022-03-21T20:38:17.272Z</time>
      </trkpt>
      <trkpt lat="44.99169" lon="4.84926">
        <ele>109.940407</ele>
        <time>2022-03-21T20:38:38.530Z</time>
      </trkpt>
      <trkpt lat="44.99241" lon="4.84884">
        <ele>109.741738</ele>
        <time>2022-03-21T20:38:58.498Z</time>
      </trkpt>
      <trkpt lat="44.99261" lon="4.84864">
        <ele>109.681096</ele>
        <time>2022-03-21T20:39:04.592Z</time>
      </trkpt>
      <trkpt lat="44.99262" lon="4.84858">
        <ele>109.670027</ele>
        <time>2022-03-21T20:39:05.633Z</time>
      </trkpt>
      <trkpt lat="44.99288" lon="4.84873">
        <ele>109.593636</ele>
        <time>2022-03-21T20:39:17.596Z</time>
      </trkpt>
      <trkpt lat="44.99297" lon="4.84876">
        <ele>109.56694</ele>
        <time>2022-03-21T20:39:21.721Z</time>
      </trkpt>
      <trkpt lat="44.99333" lon="4.8486">
        <ele>109.463352</ele>
        <time>2022-03-21T20:39:37.793Z</time>
      </trkpt>
      <trkpt lat="44.99385" lon="4.84873">
        <ele>109.317431</ele>
        <time>2022-03-21T20:40:00.511Z</time>
      </trkpt>
      <trkpt lat="44.99394" lon="4.84884">
        <ele>109.285361</ele>
        <time>2022-03-21T20:40:05.571Z</time>
      </trkpt>
      <trkpt lat="44.99435" lon="4.85002">
        <ele>109.178688</ele>
        <time>2022-03-21T20:40:46.548Z</time>
      </trkpt>
      <trkpt lat="44.99443" lon="4.8501">
        <ele>109.181605</ele>
        <time>2022-03-21T20:40:50.978Z</time>
      </trkpt>
      <trkpt lat="44.99448" lon="4.85008">
        <ele>109.183279</ele>
        <time>2022-03-21T20:40:53.543Z</time>
      </trkpt>
      <trkpt lat="44.99468" lon="4.84993">
        <ele>109.189947</ele>
        <time>2022-03-21T20:41:03.718Z</time>
      </trkpt>
      <trkpt lat="44.99479" lon="4.84967">
        <ele>109.196216</ele>
        <time>2022-03-21T20:41:13.356Z</time>
      </trkpt>
      <trkpt lat="44.99489" lon="4.84955">
        <ele>109.200066</ele>
        <time>2022-03-21T20:41:19.282Z</time>
      </trkpt>
      <trkpt lat="44.99508" lon="4.84948">
        <ele>109.205767</ele>
        <time>2022-03-21T20:41:28.126Z</time>
      </trkpt>
      <trkpt lat="44.9954" lon="4.84923">
        <ele>109.216636</ele>
        <time>2022-03-21T20:41:45.105Z</time>
      </trkpt>
      <trkpt lat="44.99606" lon="4.8485">
        <ele>109.777873</ele>
        <time>2022-03-21T20:42:23.766Z</time>
      </trkpt>
      <trkpt lat="44.99694" lon="4.84742">
        <ele>110.83315</ele>
        <time>2022-03-21T20:43:22.684Z</time>
      </trkpt>
      <trkpt lat="44.99719" lon="4.84722">
        <ele>111.411041</ele>
        <time>2022-03-21T20:43:38.955Z</time>
      </trkpt>
      <trkpt lat="44.9973" lon="4.84695">
        <ele>111.86725</ele>
        <time>2022-03-21T20:43:53.370Z</time>
      </trkpt>
      <trkpt lat="44.99719" lon="4.84653">
        <ele>112.520792</ele>
        <time>2022-03-21T20:44:14.196Z</time>
      </trkpt>
      <trkpt lat="44.99719" lon="4.84625">
        <ele>112.922645</ele>
        <time>2022-03-21T20:44:26.274Z</time>
      </trkpt>
      <trkpt lat="44.99715" lon="4.84585">
        <ele>113.509178</ele>
        <time>2022-03-21T20:44:41.928Z</time>
      </trkpt>
      <trkpt lat="44.99719" lon="4.84566">
        <ele>113.796326</ele>
        <time>2022-03-21T20:44:50.205Z</time>
      </trkpt>
      <trkpt lat="44.99723" lon="4.84562">
        <ele>113.883317</ele>
        <time>2022-03-21T20:44:52.230Z</time>
      </trkpt>
      <trkpt lat="44.99732" lon="4.84549">
        <ele>114.119729</ele>
        <time>2022-03-21T20:44:57.685Z</time>
      </trkpt>
      <trkpt lat="44.99739" lon="4.84537">
        <ele>114.123511</ele>
        <time>2022-03-21T20:45:01.826Z</time>
      </trkpt>
      <trkpt lat="44.99739" lon="4.8453">
        <ele>114.12527</ele>
        <time>2022-03-21T20:45:04.771Z</time>
      </trkpt>
      <trkpt lat="44.99748" lon="4.84525">
        <ele>114.12873</ele>
        <time>2022-03-21T20:45:08.681Z</time>
      </trkpt>
      <trkpt lat="44.99766" lon="4.84508">
        <ele>114.136232</ele>
        <time>2022-03-21T20:45:14.662Z</time>
      </trkpt>
      <trkpt lat="44.99773" lon="4.84502">
        <ele>114.138977</ele>
        <time>2022-03-21T20:45:18.881Z</time>
      </trkpt>
      <trkpt lat="44.99798" lon="4.84474">
        <ele>114.150008</ele>
        <time>2022-03-21T20:45:28.086Z</time>
      </trkpt>
      <trkpt lat="44.998" lon="4.84471">
        <ele>114.150908</ele>
        <time>2022-03-21T20:45:29.809Z</time>
      </trkpt>
      <trkpt lat="44.99834" lon="4.84438">
        <ele>114.165055</ele>
        <time>2022-03-21T20:45:40.982Z</time>
      </trkpt>
      <trkpt lat="44.99864" lon="4.84404">
        <ele>114.17834</ele>
        <time>2022-03-21T20:45:50.436Z</time>
      </trkpt>
      <trkpt lat="44.99872" lon="4.84398">
        <ele>114.159802</ele>
        <time>2022-03-21T20:45:52.438Z</time>
      </trkpt>
      <trkpt lat="44.99925" lon="4.84358">
        <ele>113.226609</ele>
        <time>2022-03-21T20:46:06.260Z</time>
      </trkpt>
      <trkpt lat="44.99953" lon="4.8434">
        <ele>112.748448</ele>
        <time>2022-03-21T20:46:12.982Z</time>
      </trkpt>
      <trkpt lat="44.99964" lon="4.84347">
        <ele>112.569221</ele>
        <time>2022-03-21T20:46:17.279Z</time>
      </trkpt>
      <trkpt lat="44.99978" lon="4.84367">
        <ele>112.254288</ele>
        <time>2022-03-21T20:46:25.117Z</time>
      </trkpt>
      <trkpt lat="45.00001" lon="4.84351">
        <ele>111.86204</ele>
        <time>2022-03-21T20:46:35.099Z</time>
      </trkpt>
      <trkpt lat="45.00072" lon="4.84259">
        <ele>111.758616</ele>
        <time>2022-03-21T20:47:17.930Z</time>
      </trkpt>
      <trkpt lat="45.00099" lon="4.84199">
        <ele>112.049429</ele>
        <time>2022-03-21T20:47:43.172Z</time>
      </trkpt>
      <trkpt lat="45.00111" lon="4.84186">
        <ele>112.134686</ele>
        <time>2022-03-21T20:47:50.864Z</time>
      </trkpt>
      <trkpt lat="45.00139" lon="4.84171">
        <ele>112.304096</ele>
        <time>2022-03-21T20:48:06.377Z</time>
      </trkpt>
      <trkpt lat="45.0016" lon="4.84138">
        <ele>112.654423</ele>
        <time>2022-03-21T20:48:23.394Z</time>
      </trkpt>
      <trkpt lat="45.00216" lon="4.84078">
        <ele>113.987748</ele>
        <time>2022-03-21T20:49:03.461Z</time>
      </trkpt>
      <trkpt lat="45.00223" lon="4.84052">
        <ele>114.364354</ele>
        <time>2022-03-21T20:49:15.179Z</time>
      </trkpt>
      <trkpt lat="45.00315" lon="4.83948">
        <ele>116.425013</ele>
        <time>2022-03-21T20:50:26.025Z</time>
      </trkpt>
      <trkpt lat="45.00392" lon="4.83826">
        <ele>118.130942</ele>
        <time>2022-03-21T20:51:31.141Z</time>
      </trkpt>
      <trkpt lat="45.00432" lon="4.83761">
        <ele>118.195757</ele>
        <time>2022-03-21T20:51:58.759Z</time>
      </trkpt>
      <trkpt lat="45.00497" lon="4.83667">
        <ele>117.49848</ele>
        <time>2022-03-21T20:52:37.154Z</time>
      </trkpt>
      <trkpt lat="45.00546" lon="4.83667">
        <ele>117.128551</ele>
        <time>2022-03-21T20:52:56.540Z</time>
      </trkpt>
      <trkpt lat="45.00568" lon="4.8365">
        <ele>116.867281</ele>
        <time>2022-03-21T20:53:05.977Z</time>
      </trkpt>
      <trkpt lat="45.00602" lon="4.83655">
        <ele>116.50841</ele>
        <time>2022-03-21T20:53:19.174Z</time>
      </trkpt>
      <trkpt lat="45.00659" lon="4.83562">
        <ele>115.585984</ele>
        <time>2022-03-21T20:53:55.274Z</time>
      </trkpt>
      <trkpt lat="45.00661" lon="4.83537">
        <ele>115.396941</ele>
        <time>2022-03-21T20:54:03.102Z</time>
      </trkpt>
      <trkpt lat="45.00708" lon="4.8349">
        <ele>115.087719</ele>
        <time>2022-03-21T20:54:27.845Z</time>
      </trkpt>
      <trkpt lat="45.00794" lon="4.83455">
        <ele>114.781645</ele>
        <time>2022-03-21T20:55:06.462Z</time>
      </trkpt>
      <trkpt lat="45.00842" lon="4.83451">
        <ele>114.617863</ele>
        <time>2022-03-21T20:55:27.319Z</time>
      </trkpt>
      <trkpt lat="45.00903" lon="4.83465">
        <ele>114.644373</ele>
        <time>2022-03-21T20:55:54.106Z</time>
      </trkpt>
      <trkpt lat="45.00968" lon="4.83475">
        <ele>114.676263</ele>
        <time>2022-03-21T20:56:23.324Z</time>
      </trkpt>
      <trkpt lat="45.01024" lon="4.83468">
        <ele>114.703062</ele>
        <time>2022-03-21T20:56:49.811Z</time>
      </trkpt>
      <trkpt lat="45.01068" lon="4.83435">
        <ele>114.728181</ele>
        <time>2022-03-21T20:57:14.397Z</time>
      </trkpt>
      <trkpt lat="45.01141" lon="4.83402">
        <ele>114.766342</ele>
        <time>2022-03-21T20:57:48.413Z</time>
      </trkpt>
      <trkpt lat="45.01172" lon="4.83395">
        <ele>114.781615</ele>
        <time>2022-03-21T20:58:01.772Z</time>
      </trkpt>
      <trkpt lat="45.01161" lon="4.83422">
        <ele>114.778805</ele>
        <time>2022-03-21T20:58:11.563Z</time>
      </trkpt>
      <trkpt lat="45.01153" lon="4.83434">
        <ele>114.726493</ele>
        <time>2022-03-21T20:58:16.355Z</time>
      </trkpt>
      <trkpt lat="45.01145" lon="4.83446">
        <ele>114.674561</ele>
        <time>2022-03-21T20:58:21.102Z</time>
      </trkpt>
      <trkpt lat="45.011" lon="4.83461">
        <ele>114.463376</ele>
        <time>2022-03-21T20:58:41.158Z</time>
      </trkpt>
      <trkpt lat="45.01097" lon="4.83472">
        <ele>114.42644</ele>
        <time>2022-03-21T20:58:44.470Z</time>
      </trkpt>
      <trkpt lat="45.01096" lon="4.83488">
        <ele>114.372732</ele>
        <time>2022-03-21T20:58:49.316Z</time>
      </trkpt>
      <trkpt lat="45.01095" lon="4.83499">
        <ele>114.337479</ele>
        <time>2022-03-21T20:58:52.651Z</time>
      </trkpt>
      <trkpt lat="45.01132" lon="4.83509">
        <ele>114.168303</ele>
        <time>2022-03-21T20:59:08.345Z</time>
      </trkpt>
      <trkpt lat="45.01138" lon="4.83514">
        <ele>114.138113</ele>
        <time>2022-03-21T20:59:11.312Z</time>
      </trkpt>
      <trkpt lat="45.01143" lon="4.83519">
        <ele>114.11125</ele>
        <time>2022-03-21T20:59:12.677Z</time>
      </trkpt>
      <trkpt lat="45.01154" lon="4.83536">
        <ele>114.036078</ele>
        <time>2022-03-21T20:59:16.593Z</time>
      </trkpt>
      <trkpt lat="45.01164" lon="4.83542">
        <ele>113.987383</ele>
        <time>2022-03-21T20:59:19.666Z</time>
      </trkpt>
      <trkpt lat="45.01225" lon="4.83559">
        <ele>114.222433</ele>
        <time>2022-03-21T20:59:36.885Z</time>
      </trkpt>
      <trkpt lat="45.0137" lon="4.83628">
        <ele>114.664658</ele>
        <time>2022-03-21T21:00:26.015Z</time>
      </trkpt>
      <trkpt lat="45.01379" lon="4.83644">
        <ele>114.643362</ele>
        <time>2022-03-21T21:00:30.285Z</time>
      </trkpt>
      <trkpt lat="45.0136" lon="4.83702">
        <ele>114.578273</ele>
        <time>2022-03-21T21:00:42.085Z</time>
      </trkpt>
      <trkpt lat="45.01361" lon="4.83732">
        <ele>114.547307</ele>
        <time>2022-03-21T21:00:47.678Z</time>
      </trkpt>
      <trkpt lat="45.01375" lon="4.83769">
        <ele>114.503953</ele>
        <time>2022-03-21T21:00:54.950Z</time>
      </trkpt>
      <trkpt lat="45.01419" lon="4.83871">
        <ele>114.034444</ele>
        <time>2022-03-21T21:01:15.071Z</time>
      </trkpt>
      <trkpt lat="45.01472" lon="4.83951">
        <ele>113.356676</ele>
        <time>2022-03-21T21:01:32.847Z</time>
      </trkpt>
      <trkpt lat="45.01482" lon="4.83961">
        <ele>113.247845</ele>
        <time>2022-03-21T21:01:35.851Z</time>
      </trkpt>
      <trkpt lat="45.01502" lon="4.83981">
        <ele>113.034857</ele>
        <time>2022-03-21T21:01:42.113Z</time>
      </trkpt>
      <trkpt lat="45.01509" lon="4.83994">
        <ele>112.929398</ele>
        <time>2022-03-21T21:01:45.332Z</time>
      </trkpt>
      <trkpt lat="45.01514" lon="4.84003">
        <ele>112.880038</ele>
        <time>2022-03-21T21:01:47.454Z</time>
      </trkpt>
      <trkpt lat="45.01523" lon="4.84018">
        <ele>112.885835</ele>
        <time>2022-03-21T21:01:51.233Z</time>
      </trkpt>
      <trkpt lat="45.01526" lon="4.84021">
        <ele>112.887515</ele>
        <time>2022-03-21T21:01:52.306Z</time>
      </trkpt>
      <trkpt lat="45.0155" lon="4.84048">
        <ele>112.900337</ele>
        <time>2022-03-21T21:02:00.560Z</time>
      </trkpt>
      <trkpt lat="45.01571" lon="4.84068">
        <ele>112.911082</ele>
        <time>2022-03-21T21:02:07.544Z</time>
      </trkpt>
      <trkpt lat="45.01609" lon="4.84088">
        <ele>112.928144</ele>
        <time>2022-03-21T21:02:18.778Z</time>
      </trkpt>
      <trkpt lat="45.01626" lon="4.84095">
        <ele>112.935802</ele>
        <time>2022-03-21T21:02:24.896Z</time>
      </trkpt>
      <trkpt lat="45.01638" lon="4.84111">
        <ele>112.942768</ele>
        <time>2022-03-21T21:02:29.246Z</time>
      </trkpt>
      <trkpt lat="45.01649" lon="4.84125">
        <ele>112.949241</ele>
        <time>2022-03-21T21:02:33.953Z</time>
      </trkpt>
      <trkpt lat="45.01732" lon="4.84205">
        <ele>113.582762</ele>
        <time>2022-03-21T21:03:05.786Z</time>
      </trkpt>
      <trkpt lat="45.01748" lon="4.84217">
        <ele>113.722836</ele>
        <time>2022-03-21T21:03:12.376Z</time>
      </trkpt>
      <trkpt lat="45.01775" lon="4.84237">
        <ele>113.944159</ele>
        <time>2022-03-21T21:03:21.591Z</time>
      </trkpt>
      <trkpt lat="45.01856" lon="4.84277">
        <ele>114.532253</ele>
        <time>2022-03-21T21:03:49.664Z</time>
      </trkpt>
      <trkpt lat="45.01914" lon="4.84293">
        <ele>114.901367</ele>
        <time>2022-03-21T21:04:09.034Z</time>
      </trkpt>
      <trkpt lat="45.01973" lon="4.84301">
        <ele>115.269887</ele>
        <time>2022-03-21T21:04:27.096Z</time>
      </trkpt>
      <trkpt lat="45.02065" lon="4.84296">
        <ele>115.345245</ele>
        <time>2022-03-21T21:04:53.348Z</time>
      </trkpt>
      <trkpt lat="45.02092" lon="4.84291">
        <ele>115.322312</ele>
        <time>2022-03-21T21:05:00.414Z</time>
      </trkpt>
      <trkpt lat="45.02148" lon="4.84268">
        <ele>115.272941</ele>
        <time>2022-03-21T21:05:15.184Z</time>
      </trkpt>
      <trkpt lat="45.02162" lon="4.84262">
        <ele>115.259906</ele>
        <time>2022-03-21T21:05:19.031Z</time>
      </trkpt>
      <trkpt lat="45.02199" lon="4.84247">
        <ele>115.15541</ele>
        <time>2022-03-21T21:05:28.497Z</time>
      </trkpt>
      <trkpt lat="45.02266" lon="4.842">
        <ele>114.907042</ele>
        <time>2022-03-21T21:05:47.296Z</time>
      </trkpt>
      <trkpt lat="45.02321" lon="4.84146">
        <ele>114.684156</ele>
        <time>2022-03-21T21:06:04.470Z</time>
      </trkpt>
      <trkpt lat="45.02361" lon="4.84097">
        <ele>114.649791</ele>
        <time>2022-03-21T21:06:18.642Z</time>
      </trkpt>
      <trkpt lat="45.02434" lon="4.83997">
        <ele>114.637139</ele>
        <time>2022-03-21T21:06:46.468Z</time>
      </trkpt>
      <trkpt lat="45.02531" lon="4.83876">
        <ele>114.855563</ele>
        <time>2022-03-21T21:07:21.546Z</time>
      </trkpt>
      <trkpt lat="45.02639" lon="4.83773">
        <ele>115.431696</ele>
        <time>2022-03-21T21:08:00.085Z</time>
      </trkpt>
      <trkpt lat="45.02656" lon="4.83759">
        <ele>115.598476</ele>
        <time>2022-03-21T21:08:06.668Z</time>
      </trkpt>
      <trkpt lat="45.02681" lon="4.83743">
        <ele>115.825294</ele>
        <time>2022-03-21T21:08:16.050Z</time>
      </trkpt>
      <trkpt lat="45.02735" lon="4.83693">
        <ele>116.357117</ele>
        <time>2022-03-21T21:08:37.841Z</time>
      </trkpt>
      <trkpt lat="45.02777" lon="4.83667">
        <ele>116.752375</ele>
        <time>2022-03-21T21:08:53.804Z</time>
      </trkpt>
      <trkpt lat="45.0278" lon="4.83677">
        <ele>116.817578</ele>
        <time>2022-03-21T21:08:57.609Z</time>
      </trkpt>
      <trkpt lat="45.02786" lon="4.83705">
        <ele>117.004036</ele>
        <time>2022-03-21T21:09:08.597Z</time>
      </trkpt>
      <trkpt lat="45.02788" lon="4.83712">
        <ele>117.052126</ele>
        <time>2022-03-21T21:09:11.447Z</time>
      </trkpt>
      <trkpt lat="45.02878" lon="4.83669">
        <ele>117.89783</ele>
        <time>2022-03-21T21:09:59.584Z</time>
      </trkpt>
      <trkpt lat="45.03026" lon="4.83628">
        <ele>118.777994</ele>
        <time>2022-03-21T21:11:12.590Z</time>
      </trkpt>
      <trkpt lat="45.03088" lon="4.83623">
        <ele>119.06887</ele>
        <time>2022-03-21T21:11:42.206Z</time>
      </trkpt>
      <trkpt lat="45.03195" lon="4.83625">
        <ele>118.975667</ele>
        <time>2022-03-21T21:12:30.369Z</time>
      </trkpt>
      <trkpt lat="45.03339" lon="4.83655">
        <ele>118.496964</ele>
        <time>2022-03-21T21:13:32.489Z</time>
      </trkpt>
      <trkpt lat="45.03536" lon="4.83729">
        <ele>117.374741</ele>
        <time>2022-03-21T21:14:58.346Z</time>
      </trkpt>
      <trkpt lat="45.03567" lon="4.83746">
        <ele>117.18969</ele>
        <time>2022-03-21T21:15:12.307Z</time>
      </trkpt>
      <trkpt lat="45.03581" lon="4.83755">
        <ele>117.099372</ele>
        <time>2022-03-21T21:15:19.122Z</time>
      </trkpt>
      <trkpt lat="45.03746" lon="4.83877">
        <ele>116.472917</ele>
        <time>2022-03-21T21:16:39.167Z</time>
      </trkpt>
      <trkpt lat="45.04244" lon="4.84372">
        <ele>115.870799</ele>
        <time>2022-03-21T21:21:07.288Z</time>
      </trkpt>
      <trkpt lat="45.04269" lon="4.84401">
        <ele>115.873994</ele>
        <time>2022-03-21T21:21:22.460Z</time>
      </trkpt>
      <trkpt lat="45.04274" lon="4.84416">
        <ele>115.875195</ele>
        <time>2022-03-21T21:21:27.830Z</time>
      </trkpt>
      <trkpt lat="45.04279" lon="4.84423">
        <ele>115.875905</ele>
        <time>2022-03-21T21:21:30.955Z</time>
      </trkpt>
      <trkpt lat="45.04276" lon="4.84432">
        <ele>115.876618</ele>
        <time>2022-03-21T21:21:32.657Z</time>
      </trkpt>
      <trkpt lat="45.04278" lon="4.84435">
        <ele>115.876965</ele>
        <time>2022-03-21T21:21:35.195Z</time>
      </trkpt>
      <trkpt lat="45.04394" lon="4.84568">
        <ele>115.423628</ele>
        <time>2022-03-21T21:22:14.562Z</time>
      </trkpt>
      <trkpt lat="45.04518" lon="4.84747">
        <ele>114.423027</ele>
        <time>2022-03-21T21:22:56.536Z</time>
      </trkpt>
      <trkpt lat="45.04611" lon="4.84871">
        <ele>113.941302</ele>
        <time>2022-03-21T21:23:29.083Z</time>
      </trkpt>
      <trkpt lat="45.05111" lon="4.8542">
        <ele>115.837417</ele>
        <time>2022-03-21T21:26:36.601Z</time>
      </trkpt>
      <trkpt lat="45.05259" lon="4.85547">
        <ele>115.479716</ele>
        <time>2022-03-21T21:27:20.199Z</time>
      </trkpt>
      <trkpt lat="45.05345" lon="4.85605">
        <ele>115.209003</ele>
        <time>2022-03-21T21:27:44.563Z</time>
      </trkpt>
      <trkpt lat="45.0544" lon="4.85659">
        <ele>115.174812</ele>
        <time>2022-03-21T21:28:12.119Z</time>
      </trkpt>
      <trkpt lat="45.05515" lon="4.8569">
        <ele>115.164108</ele>
        <time>2022-03-21T21:28:33.773Z</time>
      </trkpt>
      <trkpt lat="45.05614" lon="4.85716">
        <ele>115.190156</ele>
        <time>2022-03-21T21:29:00.679Z</time>
      </trkpt>
      <trkpt lat="45.05727" lon="4.85737">
        <ele>115.289466</ele>
        <time>2022-03-21T21:29:31.600Z</time>
      </trkpt>
      <trkpt lat="45.05784" lon="4.85735">
        <ele>115.369051</ele>
        <time>2022-03-21T21:29:47.353Z</time>
      </trkpt>
      <trkpt lat="45.05846" lon="4.85725">
        <ele>115.458378</ele>
        <time>2022-03-21T21:30:05.151Z</time>
      </trkpt>
      <trkpt lat="45.05959" lon="4.85665">
        <ele>115.960063</ele>
        <time>2022-03-21T21:30:40.732Z</time>
      </trkpt>
      <trkpt lat="45.06004" lon="4.85629">
        <ele>116.177395</ele>
        <time>2022-03-21T21:30:56.409Z</time>
      </trkpt>
      <trkpt lat="45.0606" lon="4.85568">
        <ele>116.524671</ele>
        <time>2022-03-21T21:31:17.966Z</time>
      </trkpt>
      <trkpt lat="45.06146" lon="4.85434">
        <ele>117.143766</ele>
        <time>2022-03-21T21:31:57.090Z</time>
      </trkpt>
      <trkpt lat="45.06199" lon="4.85337">
        <ele>117.44808</ele>
        <time>2022-03-21T21:32:22.490Z</time>
      </trkpt>
      <trkpt lat="45.06261" lon="4.85203">
        <ele>117.87668</ele>
        <time>2022-03-21T21:32:54.974Z</time>
      </trkpt>
      <trkpt lat="45.0631" lon="4.85078">
        <ele>118.320416</ele>
        <time>2022-03-21T21:33:25.374Z</time>
      </trkpt>
      <trkpt lat="45.06312" lon="4.85065">
        <ele>118.363033</ele>
        <time>2022-03-21T21:33:27.941Z</time>
      </trkpt>
      <trkpt lat="45.0632" lon="4.85048">
        <ele>118.426052</ele>
        <time>2022-03-21T21:33:32.849Z</time>
      </trkpt>
      <trkpt lat="45.06334" lon="4.85006">
        <ele>118.555421</ele>
        <time>2022-03-21T21:33:42.960Z</time>
      </trkpt>
      <trkpt lat="45.06339" lon="4.84989">
        <ele>118.593634</ele>
        <time>2022-03-21T21:33:47.148Z</time>
      </trkpt>
      <trkpt lat="45.06361" lon="4.84903">
        <ele>118.782941</ele>
        <time>2022-03-21T21:34:07.857Z</time>
      </trkpt>
      <trkpt lat="45.06417" lon="4.84687">
        <ele>118.951038</ele>
        <time>2022-03-21T21:34:55.144Z</time>
      </trkpt>
      <trkpt lat="45.06431" lon="4.84629">
        <ele>118.887396</ele>
        <time>2022-03-21T21:35:06.916Z</time>
      </trkpt>
      <trkpt lat="45.06455" lon="4.84488">
        <ele>118.800075</ele>
        <time>2022-03-21T21:35:34.577Z</time>
      </trkpt>
      <trkpt lat="45.06458" lon="4.84432">
        <ele>118.813864</ele>
        <time>2022-03-21T21:35:45.151Z</time>
      </trkpt>
      <trkpt lat="45.06468" lon="4.84381">
        <ele>118.827273</ele>
        <time>2022-03-21T21:35:55.923Z</time>
      </trkpt>
      <trkpt lat="45.06472" lon="4.84362">
        <ele>118.832188</ele>
        <time>2022-03-21T21:36:00.250Z</time>
      </trkpt>
      <trkpt lat="45.06479" lon="4.84325">
        <ele>118.84176</ele>
        <time>2022-03-21T21:36:08.949Z</time>
      </trkpt>
      <trkpt lat="45.06484" lon="4.84303">
        <ele>118.847278</ele>
        <time>2022-03-21T21:36:13.929Z</time>
      </trkpt>
      <trkpt lat="45.06491" lon="4.84271">
        <ele>118.870891</ele>
        <time>2022-03-21T21:36:21.612Z</time>
      </trkpt>
      <trkpt lat="45.06493" lon="4.84262">
        <ele>118.88125</ele>
        <time>2022-03-21T21:36:23.891Z</time>
      </trkpt>
      <trkpt lat="45.06497" lon="4.84249">
        <ele>118.896243</ele>
        <time>2022-03-21T21:36:27.089Z</time>
      </trkpt>
      <trkpt lat="45.06515" lon="4.84177">
        <ele>118.978208</ele>
        <time>2022-03-21T21:36:42.933Z</time>
      </trkpt>
      <trkpt lat="45.06526" lon="4.84132">
        <ele>119.028544</ele>
        <time>2022-03-21T21:36:52.498Z</time>
      </trkpt>
      <trkpt lat="45.06546" lon="4.84047">
        <ele>119.1257</ele>
        <time>2022-03-21T21:37:09.397Z</time>
      </trkpt>
      <trkpt lat="45.06545" lon="4.84037">
        <ele>119.147798</ele>
        <time>2022-03-21T21:37:11.324Z</time>
      </trkpt>
      <trkpt lat="45.0655" lon="4.84036">
        <ele>119.164063</ele>
        <time>2022-03-21T21:37:12.562Z</time>
      </trkpt>
      <trkpt lat="45.06557" lon="4.84022">
        <ele>119.201815</ele>
        <time>2022-03-21T21:37:16.016Z</time>
      </trkpt>
      <trkpt lat="45.06563" lon="4.84018">
        <ele>119.220967</ele>
        <time>2022-03-21T21:37:17.608Z</time>
      </trkpt>
      <trkpt lat="45.06566" lon="4.8401">
        <ele>119.243143</ele>
        <time>2022-03-21T21:37:19.550Z</time>
      </trkpt>
      <trkpt lat="45.06568" lon="4.84001">
        <ele>119.264716</ele>
        <time>2022-03-21T21:37:21.497Z</time>
      </trkpt>
      <trkpt lat="45.06565" lon="4.83993">
        <ele>119.285717</ele>
        <time>2022-03-21T21:37:23.132Z</time>
      </trkpt>
      <trkpt lat="45.06567" lon="4.83971">
        <ele>119.336608</ele>
        <time>2022-03-21T21:37:27.774Z</time>
      </trkpt>
      <trkpt lat="45.06605" lon="4.83872">
        <ele>119.590856</ele>
        <time>2022-03-21T21:37:50.045Z</time>
      </trkpt>
      <trkpt lat="45.06649" lon="4.83762">
        <ele>120.523223</ele>
        <time>2022-03-21T21:38:19.730Z</time>
      </trkpt>
      <trkpt lat="45.06775" lon="4.83479">
        <ele>124.612777</ele>
        <time>2022-03-21T21:39:53.186Z</time>
      </trkpt>
      <trkpt lat="45.06776" lon="4.83478">
        <ele>124.639039</ele>
        <time>2022-03-21T21:39:53.941Z</time>
      </trkpt>
      <trkpt lat="45.0678" lon="4.8347">
        <ele>124.774665</ele>
        <time>2022-03-21T21:39:57.086Z</time>
      </trkpt>
      <trkpt lat="45.06786" lon="4.83463">
        <ele>124.929526</ele>
        <time>2022-03-21T21:40:00.836Z</time>
      </trkpt>
      <trkpt lat="45.06787" lon="4.83453">
        <ele>125.070419</ele>
        <time>2022-03-21T21:40:04.297Z</time>
      </trkpt>
      <trkpt lat="45.06792" lon="4.83441">
        <ele>125.27135</ele>
        <time>2022-03-21T21:40:07.877Z</time>
      </trkpt>
      <trkpt lat="45.06828" lon="4.83376">
        <ele>126.200537</ele>
        <time>2022-03-21T21:40:32.855Z</time>
      </trkpt>
      <trkpt lat="45.06824" lon="4.83371">
        <ele>126.247638</ele>
        <time>2022-03-21T21:40:35.047Z</time>
      </trkpt>
      <trkpt lat="45.06833" lon="4.83356">
        <ele>126.379906</ele>
        <time>2022-03-21T21:40:39.274Z</time>
      </trkpt>
      <trkpt lat="45.06819" lon="4.8334">
        <ele>126.555498</ele>
        <time>2022-03-21T21:40:46.670Z</time>
      </trkpt>
      <trkpt lat="45.06802" lon="4.83332">
        <ele>126.739688</ele>
        <time>2022-03-21T21:40:53.504Z</time>
      </trkpt>
      <trkpt lat="45.06799" lon="4.83324">
        <ele>126.80184</ele>
        <time>2022-03-21T21:40:55.834Z</time>
      </trkpt>
      <trkpt lat="45.06796" lon="4.83316">
        <ele>126.861032</ele>
        <time>2022-03-21T21:40:58.380Z</time>
      </trkpt>
      <trkpt lat="45.06777" lon="4.83296">
        <ele>127.097163</ele>
        <time>2022-03-21T21:41:06.413Z</time>
      </trkpt>
      <trkpt lat="45.06772" lon="4.83301">
        <ele>127.160406</ele>
        <time>2022-03-21T21:41:08.395Z</time>
      </trkpt>
      <trkpt lat="45.06769" lon="4.83296">
        <ele>127.202409</ele>
        <time>2022-03-21T21:41:09.918Z</time>
      </trkpt>
      <trkpt lat="45.06765" lon="4.83292">
        <ele>127.249228</ele>
        <time>2022-03-21T21:41:11.286Z</time>
      </trkpt>
      <trkpt lat="45.0676" lon="4.83279">
        <ele>127.353932</ele>
        <time>2022-03-21T21:41:14.421Z</time>
      </trkpt>
      <trkpt lat="45.06765" lon="4.83292">
        <ele>127.458636</ele>
        <time>2022-03-21T21:41:17.382Z</time>
      </trkpt>
      <trkpt lat="45.06769" lon="4.83296">
        <ele>127.505456</ele>
        <time>2022-03-21T21:41:18.669Z</time>
      </trkpt>
      <trkpt lat="45.06772" lon="4.83301">
        <ele>127.547459</ele>
        <time>2022-03-21T21:41:19.962Z</time>
      </trkpt>
      <trkpt lat="45.06786" lon="4.83347">
        <ele>127.529938</ele>
        <time>2022-03-21T21:41:30.687Z</time>
      </trkpt>
      <trkpt lat="45.0679" lon="4.8334">
        <ele>127.431003</ele>
        <time>2022-03-21T21:41:32.532Z</time>
      </trkpt>
      <trkpt lat="45.06802" lon="4.83332">
        <ele>127.229704</ele>
        <time>2022-03-21T21:41:35.713Z</time>
      </trkpt>
      <trkpt lat="45.06799" lon="4.83324">
        <ele>127.133254</ele>
        <time>2022-03-21T21:41:37.649Z</time>
      </trkpt>
      <trkpt lat="45.06804" lon="4.83316">
        <ele>127.019016</ele>
        <time>2022-03-21T21:41:39.510Z</time>
      </trkpt>
      <trkpt lat="45.06809" lon="4.83299">
        <ele>126.811108</ele>
        <time>2022-03-21T21:41:43.642Z</time>
      </trkpt>
      <trkpt lat="45.06816" lon="4.83298">
        <ele>126.706025</ele>
        <time>2022-03-21T21:41:45.635Z</time>
      </trkpt>
      <trkpt lat="45.06821" lon="4.83296">
        <ele>126.616087</ele>
        <time>2022-03-21T21:41:47.457Z</time>
      </trkpt>
      <trkpt lat="45.06824" lon="4.83286">
        <ele>126.503895</ele>
        <time>2022-03-21T21:41:49.699Z</time>
      </trkpt>
      <trkpt lat="45.06831" lon="4.83279">
        <ele>126.371389</ele>
        <time>2022-03-21T21:41:52.293Z</time>
      </trkpt>
      <trkpt lat="45.06845" lon="4.83277">
        <ele>126.151389</ele>
        <time>2022-03-21T21:41:56.327Z</time>
      </trkpt>
      <trkpt lat="45.06863" lon="4.83285">
        <ele>125.852591</ele>
        <time>2022-03-21T21:42:02.101Z</time>
      </trkpt>
      <trkpt lat="45.06865" lon="4.83277">
        <ele>125.759934</ele>
        <time>2022-03-21T21:42:03.374Z</time>
      </trkpt>
      <trkpt lat="45.06871" lon="4.83278">
        <ele>125.672259</ele>
        <time>2022-03-21T21:42:04.569Z</time>
      </trkpt>
      <trkpt lat="45.06881" lon="4.83243">
        <ele>125.264471</ele>
        <time>2022-03-21T21:42:10.626Z</time>
      </trkpt>
      <trkpt lat="45.06888" lon="4.83225">
        <ele>125.032821</ele>
        <time>2022-03-21T21:42:13.880Z</time>
      </trkpt>
      <trkpt lat="45.06959" lon="4.83085">
        <ele>122.935825</ele>
        <time>2022-03-21T21:42:41.774Z</time>
      </trkpt>
      <trkpt lat="45.07057" lon="4.82962">
        <ele>121.758177</ele>
        <time>2022-03-21T21:43:14.704Z</time>
      </trkpt>
      <trkpt lat="45.07085" lon="4.82929">
        <ele>121.697426</ele>
        <time>2022-03-21T21:43:25.070Z</time>
      </trkpt>
      <trkpt lat="45.07092" lon="4.82931">
        <ele>121.686171</ele>
        <time>2022-03-21T21:43:27.046Z</time>
      </trkpt>
      <trkpt lat="45.07097" lon="4.82937">
        <ele>121.675565</ele>
        <time>2022-03-21T21:43:29.169Z</time>
      </trkpt>
      <trkpt lat="45.07121" lon="4.82911">
        <ele>121.624668</ele>
        <time>2022-03-21T21:43:40.339Z</time>
      </trkpt>
      <trkpt lat="45.07121" lon="4.82907">
        <ele>121.620059</ele>
        <time>2022-03-21T21:43:41.428Z</time>
      </trkpt>
      <trkpt lat="45.07093" lon="4.82871">
        <ele>121.626937</ele>
        <time>2022-03-21T21:43:53.348Z</time>
      </trkpt>
      <trkpt lat="45.07078" lon="4.8285">
        <ele>121.746582</ele>
        <time>2022-03-21T21:44:00.365Z</time>
      </trkpt>
      <trkpt lat="45.07095" lon="4.82834">
        <ele>121.858374</ele>
        <time>2022-03-21T21:44:07.430Z</time>
      </trkpt>
      <trkpt lat="45.07115" lon="4.82813">
        <ele>121.996118</ele>
        <time>2022-03-21T21:44:15.615Z</time>
      </trkpt>
      <trkpt lat="45.07141" lon="4.82781">
        <ele>122.188182</ele>
        <time>2022-03-21T21:44:27.309Z</time>
      </trkpt>
      <trkpt lat="45.07162" lon="4.82754">
        <ele>122.347417</ele>
        <time>2022-03-21T21:44:36.613Z</time>
      </trkpt>
      <trkpt lat="45.07203" lon="4.82692">
        <ele>122.647978</ele>
        <time>2022-03-21T21:44:54.900Z</time>
      </trkpt>
      <trkpt lat="45.07227" lon="4.82637">
        <ele>122.826915</ele>
        <time>2022-03-21T21:45:07.573Z</time>
      </trkpt>
      <trkpt lat="45.07247" lon="4.82582">
        <ele>123.00053</ele>
        <time>2022-03-21T21:45:20.197Z</time>
      </trkpt>
      <trkpt lat="45.07272" lon="4.82496">
        <ele>123.261165</ele>
        <time>2022-03-21T21:45:39.510Z</time>
      </trkpt>
      <trkpt lat="45.07281" lon="4.82452">
        <ele>123.497115</ele>
        <time>2022-03-21T21:45:49.830Z</time>
      </trkpt>
      <trkpt lat="45.07288" lon="4.82393">
        <ele>123.840813</ele>
        <time>2022-03-21T21:46:04.338Z</time>
      </trkpt>
      <trkpt lat="45.07289" lon="4.82376">
        <ele>123.934946</ele>
        <time>2022-03-21T21:46:08.888Z</time>
      </trkpt>
      <trkpt lat="45.07291" lon="4.82356">
        <ele>124.052955</ele>
        <time>2022-03-21T21:46:14.098Z</time>
      </trkpt>
      <trkpt lat="45.07291" lon="4.82312">
        <ele>124.298682</ele>
        <time>2022-03-21T21:46:24.550Z</time>
      </trkpt>
      <trkpt lat="45.07287" lon="4.82281">
        <ele>124.477401</ele>
        <time>2022-03-21T21:46:31.245Z</time>
      </trkpt>
      <trkpt lat="45.07283" lon="4.82264">
        <ele>124.581245</ele>
        <time>2022-03-21T21:46:35.698Z</time>
      </trkpt>
      <trkpt lat="45.07282" lon="4.82259">
        <ele>124.608017</ele>
        <time>2022-03-21T21:46:37.062Z</time>
      </trkpt>
      <trkpt lat="45.07281" lon="4.82255">
        <ele>124.636256</ele>
        <time>2022-03-21T21:46:38.034Z</time>
      </trkpt>
      <trkpt lat="45.07275" lon="4.82238">
        <ele>124.724984</ele>
        <time>2022-03-21T21:46:41.554Z</time>
      </trkpt>
      <trkpt lat="45.07267" lon="4.82221">
        <ele>124.693329</ele>
        <time>2022-03-21T21:46:47.153Z</time>
      </trkpt>
      <trkpt lat="45.07265" lon="4.82216">
        <ele>124.683466</ele>
        <time>2022-03-21T21:46:48.716Z</time>
      </trkpt>
      <trkpt lat="45.07267" lon="4.82208">
        <ele>124.669844</ele>
        <time>2022-03-21T21:46:50.236Z</time>
      </trkpt>
      <trkpt lat="45.0727" lon="4.82202">
        <ele>124.657769</ele>
        <time>2022-03-21T21:46:51.525Z</time>
      </trkpt>
      <trkpt lat="45.07263" lon="4.82194">
        <ele>124.63924</ele>
        <time>2022-03-21T21:46:53.962Z</time>
      </trkpt>
      <trkpt lat="45.07259" lon="4.82174">
        <ele>124.603984</ele>
        <time>2022-03-21T21:46:58.805Z</time>
      </trkpt>
      <trkpt lat="45.0726" lon="4.82168">
        <ele>124.594958</ele>
        <time>2022-03-21T21:47:00.074Z</time>
      </trkpt>
      <trkpt lat="45.07274" lon="4.8212">
        <ele>124.511544</ele>
        <time>2022-03-21T21:47:09.736Z</time>
      </trkpt>
      <trkpt lat="45.07274" lon="4.82117">
        <ele>124.505478</ele>
        <time>2022-03-21T21:47:10.317Z</time>
      </trkpt>
      <trkpt lat="45.07281" lon="4.82093">
        <ele>124.465443</ele>
        <time>2022-03-21T21:47:14.752Z</time>
      </trkpt>
      <trkpt lat="45.07369" lon="4.81799">
        <ele>122.922307</ele>
        <time>2022-03-21T21:48:08.752Z</time>
      </trkpt>
      <trkpt lat="45.07387" lon="4.8176">
        <ele>122.660703</ele>
        <time>2022-03-21T21:48:16.741Z</time>
      </trkpt>
      <trkpt lat="45.07398" lon="4.81747">
        <ele>122.563994</ele>
        <time>2022-03-21T21:48:20.102Z</time>
      </trkpt>
      <trkpt lat="45.0742" lon="4.81726">
        <ele>122.379012</ele>
        <time>2022-03-21T21:48:26.613Z</time>
      </trkpt>
      <trkpt lat="45.07524" lon="4.81652">
        <ele>121.578905</ele>
        <time>2022-03-21T21:48:55.349Z</time>
      </trkpt>
      <trkpt lat="45.07527" lon="4.8165">
        <ele>121.559207</ele>
        <time>2022-03-21T21:48:56.030Z</time>
      </trkpt>
      <trkpt lat="45.07529" lon="4.81649">
        <ele>121.541131</ele>
        <time>2022-03-21T21:48:56.695Z</time>
      </trkpt>
      <trkpt lat="45.07532" lon="4.8164">
        <ele>121.505722</ele>
        <time>2022-03-21T21:48:58.300Z</time>
      </trkpt>
      <trkpt lat="45.07528" lon="4.81642">
        <ele>121.488073</ele>
        <time>2022-03-21T21:48:59.241Z</time>
      </trkpt>
      <trkpt lat="45.07527" lon="4.81636">
        <ele>121.466148</ele>
        <time>2022-03-21T21:49:02.469Z</time>
      </trkpt>
      <trkpt lat="45.07525" lon="4.81632">
        <ele>121.447759</ele>
        <time>2022-03-21T21:49:07.235Z</time>
      </trkpt>
      <trkpt lat="45.07522" lon="4.81601">
        <ele>121.344144</ele>
        <time>2022-03-21T21:49:14.412Z</time>
      </trkpt>
      <trkpt lat="45.07517" lon="4.81597">
        <ele>121.315172</ele>
        <time>2022-03-21T21:49:16.030Z</time>
      </trkpt>
      <trkpt lat="45.07514" lon="4.81586">
        <ele>121.275405</ele>
        <time>2022-03-21T21:49:18.204Z</time>
      </trkpt>
      <trkpt lat="45.07503" lon="4.8158">
        <ele>121.21718</ele>
        <time>2022-03-21T21:49:23.300Z</time>
      </trkpt>
      <trkpt lat="45.07492" lon="4.81564">
        <ele>121.142151</ele>
        <time>2022-03-21T21:49:30.053Z</time>
      </trkpt>
      <trkpt lat="45.07475" lon="4.81523">
        <ele>120.984525</ele>
        <time>2022-03-21T21:49:44.135Z</time>
      </trkpt>
      <trkpt lat="45.07471" lon="4.81477">
        <ele>120.829344</ele>
        <time>2022-03-21T21:49:58.057Z</time>
      </trkpt>
      <trkpt lat="45.07373" lon="4.81125">
        <ele>120.525946</ele>
        <time>2022-03-21T21:51:55.151Z</time>
      </trkpt>
      <trkpt lat="45.07358" lon="4.81088">
        <ele>120.631256</ele>
        <time>2022-03-21T21:52:09.242Z</time>
      </trkpt>
      <trkpt lat="45.0735" lon="4.81048">
        <ele>120.737594</ele>
        <time>2022-03-21T21:52:23.640Z</time>
      </trkpt>
      <trkpt lat="45.07327" lon="4.80979">
        <ele>120.929618</ele>
        <time>2022-03-21T21:52:49.784Z</time>
      </trkpt>
      <trkpt lat="45.0732" lon="4.80937">
        <ele>121.082054</ele>
        <time>2022-03-21T21:53:05.012Z</time>
      </trkpt>
      <trkpt lat="45.07294" lon="4.809">
        <ele>121.303886</ele>
        <time>2022-03-21T21:53:23.742Z</time>
      </trkpt>
      <trkpt lat="45.07285" lon="4.80872">
        <ele>121.432957</ele>
        <time>2022-03-21T21:53:34.396Z</time>
      </trkpt>
      <trkpt lat="45.07283" lon="4.80842">
        <ele>121.56106</ele>
        <time>2022-03-21T21:53:44.631Z</time>
      </trkpt>
      <trkpt lat="45.07292" lon="4.80835">
        <ele>121.622887</ele>
        <time>2022-03-21T21:53:49.499Z</time>
      </trkpt>
      <trkpt lat="45.07299" lon="4.80841">
        <ele>121.671504</ele>
        <time>2022-03-21T21:53:53.576Z</time>
      </trkpt>
      <trkpt lat="45.07313" lon="4.80875">
        <ele>121.83805</ele>
        <time>2022-03-21T21:54:06.686Z</time>
      </trkpt>
      <trkpt lat="45.07315" lon="4.80878">
        <ele>121.860682</ele>
        <time>2022-03-21T21:54:08.609Z</time>
      </trkpt>
      <trkpt lat="45.07315" lon="4.80872">
        <ele>121.885735</ele>
        <time>2022-03-21T21:54:10.024Z</time>
      </trkpt>
      <trkpt lat="45.07252" lon="4.80527">
        <ele>122.849976</ele>
        <time>2022-03-21T21:55:27.433Z</time>
      </trkpt>
      <trkpt lat="45.07245" lon="4.80493">
        <ele>122.95687</ele>
        <time>2022-03-21T21:55:34.946Z</time>
      </trkpt>
      <trkpt lat="45.07165" lon="4.80056">
        <ele>124.610265</ele>
        <time>2022-03-21T21:57:15.817Z</time>
      </trkpt>
      <trkpt lat="45.07163" lon="4.80021">
        <ele>124.865835</ele>
        <time>2022-03-21T21:57:23.572Z</time>
      </trkpt>
      <trkpt lat="45.07165" lon="4.80014">
        <ele>124.928054</ele>
        <time>2022-03-21T21:57:26.920Z</time>
      </trkpt>
      <trkpt lat="45.07218" lon="4.79946">
        <ele>125.669187</ele>
        <time>2022-03-21T21:57:58.140Z</time>
      </trkpt>
      <trkpt lat="45.07222" lon="4.79939">
        <ele>125.732793</ele>
        <time>2022-03-21T21:58:01.749Z</time>
      </trkpt>
      <trkpt lat="45.07225" lon="4.79936">
        <ele>125.77621</ele>
        <time>2022-03-21T21:58:03.704Z</time>
      </trkpt>
      <trkpt lat="45.07192" lon="4.79909">
        <ele>126.17588</ele>
        <time>2022-03-21T21:58:16.861Z</time>
      </trkpt>
      <trkpt lat="45.07177" lon="4.79889">
        <ele>126.398939</ele>
        <time>2022-03-21T21:58:23.079Z</time>
      </trkpt>
      <trkpt lat="45.07149" lon="4.79825">
        <ele>126.976906</ele>
        <time>2022-03-21T21:58:42.614Z</time>
      </trkpt>
      <trkpt lat="45.07117" lon="4.79745">
        <ele>127.682529</ele>
        <time>2022-03-21T21:59:03.803Z</time>
      </trkpt>
      <trkpt lat="45.07112" lon="4.79734">
        <ele>127.782374</ele>
        <time>2022-03-21T21:59:06.833Z</time>
      </trkpt>
      <trkpt lat="45.07105" lon="4.79718">
        <ele>127.929861</ele>
        <time>2022-03-21T21:59:11.229Z</time>
      </trkpt>
      <trkpt lat="45.07103" lon="4.79714">
        <ele>127.96814</ele>
        <time>2022-03-21T21:59:12.358Z</time>
      </trkpt>
      <trkpt lat="45.06979" lon="4.79469">
        <ele>130.927622</ele>
        <time>2022-03-21T22:00:31.043Z</time>
      </trkpt>
      <trkpt lat="45.06975" lon="4.7946">
        <ele>131.034829</ele>
        <time>2022-03-21T22:00:34.039Z</time>
      </trkpt>
      <trkpt lat="45.06926" lon="4.79372">
        <ele>132.196823</ele>
        <time>2022-03-21T22:01:03.256Z</time>
      </trkpt>
      <trkpt lat="45.06901" lon="4.79304">
        <ele>132.994174</ele>
        <time>2022-03-21T22:01:23.172Z</time>
      </trkpt>
      <trkpt lat="45.06887" lon="4.79241">
        <ele>133.692371</ele>
        <time>2022-03-21T22:01:40.146Z</time>
      </trkpt>
      <trkpt lat="45.06859" lon="4.7918">
        <ele>134.471917</ele>
        <time>2022-03-21T22:02:00.007Z</time>
      </trkpt>
      <trkpt lat="45.06841" lon="4.7914">
        <ele>134.975209</ele>
        <time>2022-03-21T22:02:13.230Z</time>
      </trkpt>
      <trkpt lat="45.06828" lon="4.79087">
        <ele>135.578447</ele>
        <time>2022-03-21T22:02:28.171Z</time>
      </trkpt>
      <trkpt lat="45.06823" lon="4.79018">
        <ele>136.27492</ele>
        <time>2022-03-21T22:02:45.494Z</time>
      </trkpt>
      <trkpt lat="45.06822" lon="4.78989">
        <ele>136.528635</ele>
        <time>2022-03-21T22:02:52.908Z</time>
      </trkpt>
      <trkpt lat="45.06822" lon="4.78974">
        <ele>136.659374</ele>
        <time>2022-03-21T22:02:56.582Z</time>
      </trkpt>
      <trkpt lat="45.06821" lon="4.78934">
        <ele>137.004952</ele>
        <time>2022-03-21T22:03:06.595Z</time>
      </trkpt>
      <trkpt lat="45.0682" lon="4.78928">
        <ele>137.059125</ele>
        <time>2022-03-21T22:03:08.542Z</time>
      </trkpt>
      <trkpt lat="45.06818" lon="4.78897">
        <ele>137.32881</ele>
        <time>2022-03-21T22:03:16.007Z</time>
      </trkpt>
      <trkpt lat="45.06811" lon="4.78866">
        <ele>137.602389</ele>
        <time>2022-03-21T22:03:24.604Z</time>
      </trkpt>
      <trkpt lat="45.06811" lon="4.78863">
        <ele>137.633081</ele>
        <time>2022-03-21T22:03:25.186Z</time>
      </trkpt>
      <trkpt lat="45.06805" lon="4.78813">
        <ele>138.070664</ele>
        <time>2022-03-21T22:03:37.988Z</time>
      </trkpt>
      <trkpt lat="45.06803" lon="4.78738">
        <ele>138.638158</ele>
        <time>2022-03-21T22:03:55.512Z</time>
      </trkpt>
      <trkpt lat="45.06802" lon="4.78737">
        <ele>138.644621</ele>
        <time>2022-03-21T22:03:55.836Z</time>
      </trkpt>
      <trkpt lat="45.06803" lon="4.78725">
        <ele>138.734375</ele>
        <time>2022-03-21T22:03:59.487Z</time>
      </trkpt>
      <trkpt lat="45.06804" lon="4.78707">
        <ele>138.859729</ele>
        <time>2022-03-21T22:04:03.286Z</time>
      </trkpt>
      <trkpt lat="45.06806" lon="4.78681">
        <ele>139.045596</ele>
        <time>2022-03-21T22:04:08.938Z</time>
      </trkpt>
      <trkpt lat="45.06807" lon="4.78548">
        <ele>139.987123</ele>
        <time>2022-03-21T22:04:41.473Z</time>
      </trkpt>
      <trkpt lat="45.06807" lon="4.785">
        <ele>140.262137</ele>
        <time>2022-03-21T22:04:53.313Z</time>
      </trkpt>
      <trkpt lat="45.06809" lon="4.7847">
        <ele>140.418684</ele>
        <time>2022-03-21T22:04:59.282Z</time>
      </trkpt>
      <trkpt lat="45.06799" lon="4.78407">
        <ele>140.76289</ele>
        <time>2022-03-21T22:05:13.324Z</time>
      </trkpt>
      <trkpt lat="45.06752" lon="4.78306">
        <ele>141.395427</ele>
        <time>2022-03-21T22:05:38.138Z</time>
      </trkpt>
      <trkpt lat="45.06741" lon="4.78268">
        <ele>142.834031</ele>
        <time>2022-03-21T22:05:45.473Z</time>
      </trkpt>
      <trkpt lat="45.06721" lon="4.78118">
        <ele>148.521444</ele>
        <time>2022-03-21T22:06:50.795Z</time>
      </trkpt>
      <trkpt lat="45.06722" lon="4.78102">
        <ele>149.115066</ele>
        <time>2022-03-21T22:07:02.564Z</time>
      </trkpt>
      <trkpt lat="45.06718" lon="4.78097">
        <ele>149.415244</ele>
        <time>2022-03-21T22:07:06.889Z</time>
      </trkpt>
      <trkpt lat="45.06712" lon="4.78091">
        <ele>149.814903</ele>
        <time>2022-03-21T22:07:13.041Z</time>
      </trkpt>
      <trkpt lat="45.06706" lon="4.78088">
        <ele>150.124069</ele>
        <time>2022-03-21T22:07:19.751Z</time>
      </trkpt>
      <trkpt lat="45.06637" lon="4.78119">
        <ele>156.213696</ele>
        <time>2022-03-21T22:08:31.859Z</time>
      </trkpt>
      <trkpt lat="45.06606" lon="4.78153">
        <ele>159.770956</ele>
        <time>2022-03-21T22:09:10.451Z</time>
      </trkpt>
      <trkpt lat="45.06604" lon="4.78159">
        <ele>160.174706</ele>
        <time>2022-03-21T22:09:15.341Z</time>
      </trkpt>
      <trkpt lat="45.06602" lon="4.78165">
        <ele>160.595671</ele>
        <time>2022-03-21T22:09:20.402Z</time>
      </trkpt>
      <trkpt lat="45.06615" lon="4.7819">
        <ele>162.568612</ele>
        <time>2022-03-21T22:09:40.194Z</time>
      </trkpt>
      <trkpt lat="45.06627" lon="4.78232">
        <ele>165.492861</ele>
        <time>2022-03-21T22:10:12.992Z</time>
      </trkpt>
      <trkpt lat="45.06624" lon="4.78384">
        <ele>168.500426</ele>
        <time>2022-03-21T22:11:19.085Z</time>
      </trkpt>
      <trkpt lat="45.06635" lon="4.78469">
        <ele>169.324049</ele>
        <time>2022-03-21T22:11:32.143Z</time>
      </trkpt>
      <trkpt lat="45.06634" lon="4.78508">
        <ele>169.688526</ele>
        <time>2022-03-21T22:11:37.639Z</time>
      </trkpt>
      <trkpt lat="45.06594" lon="4.78661">
        <ele>169.742681</ele>
        <time>2022-03-21T22:12:00.019Z</time>
      </trkpt>
      <trkpt lat="45.06553" lon="4.78731">
        <ele>169.742681</ele>
        <time>2022-03-21T22:12:12.528Z</time>
      </trkpt>
      <trkpt lat="45.06531" lon="4.78774">
        <ele>169.742681</ele>
        <time>2022-03-21T22:12:19.841Z</time>
      </trkpt>
      <trkpt lat="45.06534" lon="4.78778">
        <ele>169.742681</ele>
        <time>2022-03-21T22:12:20.874Z</time>
      </trkpt>
      <trkpt lat="45.06533" lon="4.78785">
        <ele>169.742681</ele>
        <time>2022-03-21T22:12:21.947Z</time>
      </trkpt>
      <trkpt lat="45.06531" lon="4.78792">
        <ele>169.742681</ele>
        <time>2022-03-21T22:12:23.588Z</time>
      </trkpt>
    </trkseg>
  </trk>
</gpx>